M/T Vemaoil Xi — 9HWD7 — position and weather

sailwx.info

Track history (hours):
 
Tides and Currents Weather Stations Pressure Air Temp Water Temp Dewpoint Dewpoint Depression Visibility Wind Speed Wind Dir Waves Ship Positions

M/T Vemaoil Xi

Last reported at 2014-Nov-30 20:23 UTC. Time now 2014-Dec-19 02:11 UTC.
Position N 35°49' E 014°33'.
Warning: this ship's position is 18 days out of date.

Length 105 m; draft 7 m.

Type: Tanker. MMSI: 215631000.

Date/timePositionNaut miles runAvg speedWind from/ knotsBaromVisibWave heightAir tempDewpointWater temp
2014-Nov-30 20:23N 35°49' E 014°33'0 0.0
2014-Nov-30 19:08N 35°49' E 014°33'0 0.0
2014-Nov-30 18:32N 35°49' E 014°33'0 0.0
2014-Nov-30 17:29N 35°49' E 014°33'0 0.0
2014-Nov-30 16:32N 35°49' E 014°33'0 0.0
2014-Nov-30 15:32N 35°49' E 014°33'0 0.0
2014-Nov-30 14:20N 35°49' E 014°33'0 0.0
2014-Nov-30 12:17N 35°49' E 014°33'0 0.0
2014-Nov-30 11:29N 35°49' E 014°33'1 0.7
2014-Nov-30 10:33N 35°49' E 014°33'1 1.3
2014-Nov-30 09:33N 35°49' E 014°35'5 5.5
2014-Nov-30 08:33N 35°55' E 014°33'7 6.7
2014-Nov-30 07:33N 35°59' E 014°27'1 0.5
2014-Nov-30 06:31N 35°59' E 014°26'0 0.0
2014-Nov-30 05:31N 35°59' E 014°26'0 0.1
2014-Nov-30 04:31N 35°59' E 014°26'0 0.0
2014-Nov-30 03:31N 35°59' E 014°26'0 0.0
2014-Nov-30 02:31N 35°59' E 014°26'0 0.0
2014-Nov-30 01:31N 35°59' E 014°26'0 0.0
2014-Nov-30 00:31N 35°59' E 014°26'0 0.0
2014-Nov-29 23:31N 35°59' E 014°26'0 0.0
2014-Nov-29 22:31N 35°59' E 014°26'0 0.1
2014-Nov-29 21:31N 35°59' E 014°26'1 0.7
2014-Nov-29 20:20N 35°58' E 014°27'5 6.5
2014-Nov-29 19:33N 35°55' E 014°32'7 5.6
2014-Nov-29 18:23N 35°50' E 014°36'3 2.4
2014-Nov-29 17:16N 35°49' E 014°33'0 0.0
2014-Nov-29 12:28N 35°49' E 014°33'0 0.1
2014-Nov-29 10:08N 35°49' E 014°32'0 0.0
2014-Nov-29 09:32N 35°49' E 014°32'2 0.2
2014-Nov-28 21:31N 35°49' E 014°35'3 2.9
2014-Nov-28 20:31N 35°52' E 014°36'9 0.8
2014-Nov-28 09:20N 35°54' E 014°46'  
2014-Nov-21 14:33N 35°52' E 014°44'2 0.1
2014-Nov-20 20:26N 35°53' E 014°47'  
Track history (hours):
 
Tides and Currents Weather Stations Pressure Air Temp Water Temp Dewpoint Dewpoint Depression Visibility Wind Speed Wind Dir Waves Ship Positions

M/T Vemaoil Xi

Last reported at 2014-Nov-30 20:23 UTC. Time now 2014-Dec-19 02:11 UTC.
Position N 35°49' E 014°33'.
Warning: this ship's position is 18 days out of date.

Length 105 m; draft 7 m.

Type: Tanker. MMSI: 215631000.

Date/timePositionNaut miles runAvg speedWind from/ knotsBaromVisibWave heightAir tempDewpointWater temp
2014-Nov-30 20:23N 35°49' E 014°33'0 0.0
2014-Nov-30 19:08N 35°49' E 014°33'0 0.0
2014-Nov-30 18:32N 35°49' E 014°33'0 0.0
2014-Nov-30 17:29N 35°49' E 014°33'0 0.0
2014-Nov-30 16:32N 35°49' E 014°33'0 0.0
2014-Nov-30 15:32N 35°49' E 014°33'0 0.0
2014-Nov-30 14:20N 35°49' E 014°33'0 0.0
2014-Nov-30 12:17N 35°49' E 014°33'0 0.0
2014-Nov-30 11:29N 35°49' E 014°33'1 0.7
2014-Nov-30 10:33N 35°49' E 014°33'1 1.3
2014-Nov-30 09:33N 35°49' E 014°35'5 5.5
2014-Nov-30 08:33N 35°55' E 014°33'7 6.7
2014-Nov-30 07:33N 35°59' E 014°27'1 0.5
2014-Nov-30 06:31N 35°59' E 014°26'0 0.0
2014-Nov-30 05:31N 35°59' E 014°26'0 0.1
2014-Nov-30 04:31N 35°59' E 014°26'0 0.0
2014-Nov-30 03:31N 35°59' E 014°26'0 0.0
2014-Nov-30 02:31N 35°59' E 014°26'0 0.0
2014-Nov-30 01:31N 35°59' E 014°26'0 0.0
2014-Nov-30 00:31N 35°59' E 014°26'0 0.0
2014-Nov-29 23:31N 35°59' E 014°26'0 0.0
2014-Nov-29 22:31N 35°59' E 014°26'0 0.1
2014-Nov-29 21:31N 35°59' E 014°26'1 0.7
2014-Nov-29 20:20N 35°58' E 014°27'5 6.5
2014-Nov-29 19:33N 35°55' E 014°32'7 5.6
2014-Nov-29 18:23N 35°50' E 014°36'3 2.4
2014-Nov-29 17:16N 35°49' E 014°33'0 0.0
2014-Nov-29 12:28N 35°49' E 014°33'0 0.1
2014-Nov-29 10:08N 35°49' E 014°32'0 0.0
2014-Nov-29 09:32N 35°49' E 014°32'2 0.2
2014-Nov-28 21:31N 35°49' E 014°35'3 2.9
2014-Nov-28 20:31N 35°52' E 014°36'9 0.8
2014-Nov-28 09:20N 35°54' E 014°46'  
2014-Nov-21 14:33N 35°52' E 014°44'2 0.1
2014-Nov-20 20:26N 35°53' E 014°47'  

Dump ship's entire track history